sensor_id;sensor_type;location;lat;lon;timestamp;P1;P2;P0
57798;PMS7003;43626;53.866;30.298;2023-02-01T00:01:57;7.6;6.4;4.2
57798;PMS7003;43626;53.866;30.298;2023-02-01T00:06:13;8.8;7.2;4.8
57798;PMS7003;43626;53.866;30.298;2023-02-01T00:11:47;8.2;6.8;4.8
57798;PMS7003;43626;53.866;30.298;2023-02-01T00:16:26;13.3;8.5;5.5
57798;PMS7003;43626;53.866;30.298;2023-02-01T00:21:47;11.6;10;5.4
57798;PMS7003;43626;53.866;30.298;2023-02-01T00:26:13;11.8;8.6;4.8
57798;PMS7003;43626;53.866;30.298;2023-02-01T00:31:55;9.8;8.6;4.6
57798;PMS7003;43626;53.866;30.298;2023-02-01T00:36:37;10.4;9;5.4
57798;PMS7003;43626;53.866;30.298;2023-02-01T00:41:59;14.8;11.6;7
57798;PMS7003;43626;53.866;30.298;2023-02-01T00:46:57;12.2;10;5.6
57798;PMS7003;43626;53.866;30.298;2023-02-01T00:51:47;11;9.2;5.8
57798;PMS7003;43626;53.866;30.298;2023-02-01T00:56:45;11.2;8.8;5.4
57798;PMS7003;43626;53.866;30.298;2023-02-01T01:01:37;10.8;9.4;5
57798;PMS7003;43626;53.866;30.298;2023-02-01T01:06:45;7;6.8;3.8
57798;PMS7003;43626;53.866;30.298;2023-02-01T01:11:12;6.4;5.2;3.4
57798;PMS7003;43626;53.866;30.298;2023-02-01T01:16:49;9.3;6;3.3
57798;PMS7003;43626;53.866;30.298;2023-02-01T01:21:25;8.2;6.6;3.8
57798;PMS7003;43626;53.866;30.298;2023-02-01T01:27:01;7;6.2;4.2
57798;PMS7003;43626;53.866;30.298;2023-02-01T01:31:39;10;8;4.6
57798;PMS7003;43626;53.866;30.298;2023-02-01T01:36:59;11.2;9.2;5
57798;PMS7003;43626;53.866;30.298;2023-02-01T01:41:47;7.4;5.8;3.4
57798;PMS7003;43626;53.866;30.298;2023-02-01T01:46:34;5.8;5.2;3.4
57798;PMS7003;43626;53.866;30.298;2023-02-01T01:51:21;6.6;5.4;3.8
57798;PMS7003;43626;53.866;30.298;2023-02-01T01:56:37;7.8;6.4;4
57798;PMS7003;43626;53.866;30.298;2023-02-01T02:01:43;10.8;7;4.4
57798;PMS7003;43626;53.866;30.298;2023-02-01T02:06:12;8.8;7;3.6
57798;PMS7003;43626;53.866;30.298;2023-02-01T02:11:45;7.8;5.4;3.2
57798;PMS7003;43626;53.866;30.298;2023-02-01T02:16:15;9.3;5;3
57798;PMS7003;43626;53.866;30.298;2023-02-01T02:22:21;9.4;7.6;4.2
57798;PMS7003;43626;53.866;30.298;2023-02-01T02:26:40;10.8;8.4;4.4
57798;PMS7003;43626;53.866;30.298;2023-02-01T02:31:20;8.6;5.6;3.2
57798;PMS7003;43626;53.866;30.298;2023-02-01T02:36:50;9;6.8;4.2
57798;PMS7003;43626;53.866;30.298;2023-02-01T02:41:48;9.6;7.8;5.2
57798;PMS7003;43626;53.866;30.298;2023-02-01T02:46:21;14.2;10.2;5.6
57798;PMS7003;43626;53.866;30.298;2023-02-01T02:51:27;12.6;10;5
57798;PMS7003;43626;53.866;30.298;2023-02-01T02:56:45;5.2;4;2.8
57798;PMS7003;43626;53.866;30.298;2023-02-01T03:01:11;5.8;4.4;2.8
57798;PMS7003;43626;53.866;30.298;2023-02-01T03:06:45;5.2;3.8;2.4
57798;PMS7003;43626;53.866;30.298;2023-02-01T03:11:37;5.2;4.4;2.6
57798;PMS7003;43626;53.866;30.298;2023-02-01T03:17:02;4.8;4.5;2.8
57798;PMS7003;43626;53.866;30.298;2023-02-01T03:21:40;6.8;4.8;3.2
57798;PMS7003;43626;53.866;30.298;2023-02-01T03:26:44;9.4;7;4
57798;PMS7003;43626;53.866;30.298;2023-02-01T03:31:47;12.4;10.4;5.6
57798;PMS7003;43626;53.866;30.298;2023-02-01T03:36:20;13;10.8;6.2
57798;PMS7003;43626;53.866;30.298;2023-02-01T03:41:12;11;8;4.6
57798;PMS7003;43626;53.866;30.298;2023-02-01T03:46:28;8;6.2;3.6
57798;PMS7003;43626;53.866;30.298;2023-02-01T03:51:59;5.8;5.4;3.2
57798;PMS7003;43626;53.866;30.298;2023-02-01T03:57:03;6.6;4.4;3.2
57798;PMS7003;43626;53.866;30.298;2023-02-01T04:01:49;6;5.2;3.4
57798;PMS7003;43626;53.866;30.298;2023-02-01T04:06:59;9.6;8.2;4.8
57798;PMS7003;43626;53.866;30.298;2023-02-01T04:12:01;8.8;8;4.2
57798;PMS7003;43626;53.866;30.298;2023-02-01T04:16:37;8;6.8;3.8
57798;PMS7003;43626;53.866;30.298;2023-02-01T04:22:01;9.3;6;4
57798;PMS7003;43626;53.866;30.298;2023-02-01T04:26:59;8.8;7.8;4.6
57798;PMS7003;43626;53.866;30.298;2023-02-01T04:31:23;9.4;8.4;4.8
57798;PMS7003;43626;53.866;30.298;2023-02-01T04:36:11;12.6;8.2;5.4
57798;PMS7003;43626;53.866;30.298;2023-02-01T04:41:25;10.8;7.8;4.6
57798;PMS7003;43626;53.866;30.298;2023-02-01T04:46:11;11.2;8.6;4.8
57798;PMS7003;43626;53.866;30.298;2023-02-01T04:51:47;12.6;9.2;4.8
57798;PMS7003;43626;53.866;30.298;2023-02-01T04:56:33;13;9.4;5.6
57798;PMS7003;43626;53.866;30.298;2023-02-01T05:01:57;13.2;9.6;5.8
57798;PMS7003;43626;53.866;30.298;2023-02-01T05:06:11;12.6;10;5.2
57798;PMS7003;43626;53.866;30.298;2023-02-01T05:11:37;13.8;11.8;7
57798;PMS7003;43626;53.866;30.298;2023-02-01T05:16:27;11.4;9.2;5.8
57798;PMS7003;43626;53.866;30.298;2023-02-01T05:21:51;10.5;9.5;5.8
57798;PMS7003;43626;53.866;30.298;2023-02-01T05:26:23;12;9.8;6
57798;PMS7003;43626;53.866;30.298;2023-02-01T05:31:23;10.6;9;5.6
57798;PMS7003;43626;53.866;30.298;2023-02-01T05:36:13;10.6;8.8;5.8
57798;PMS7003;43626;53.866;30.298;2023-02-01T05:41:51;13.8;11.4;6.6
57798;PMS7003;43626;53.866;30.298;2023-02-01T05:46:51;15.2;12.6;7.2
57798;PMS7003;43626;53.866;30.298;2023-02-01T05:51:23;15.8;12.4;7.4
57798;PMS7003;43626;53.866;30.298;2023-02-01T05:56:51;13.8;11.6;7.2
57798;PMS7003;43626;53.866;30.298;2023-02-01T06:01:33;12.4;11.2;6.4
57798;PMS7003;43626;53.866;30.298;2023-02-01T06:06:43;17;11.5;9
57798;PMS7003;43626;53.866;30.298;2023-02-01T06:11:23;16.4;13.6;8.4
57798;PMS7003;43626;53.866;30.298;2023-02-01T06:16:47;19;15.8;9.6
57798;PMS7003;43626;53.866;30.298;2023-02-01T06:21:13;22.2;18.4;11.4
57798;PMS7003;43626;53.866;30.298;2023-02-01T06:26:35;23;18.2;11.8
57798;PMS7003;43626;53.866;30.298;2023-02-01T06:31:25;18.6;15.8;9.6
57798;PMS7003;43626;53.866;30.298;2023-02-01T06:36:49;18.2;16;10.2
57798;PMS7003;43626;53.866;30.298;2023-02-01T06:41:57;18;14.4;8.2
57798;PMS7003;43626;53.866;30.298;2023-02-01T06:46:13;21;17.6;11.2
57798;PMS7003;43626;53.866;30.298;2023-02-01T06:51:59;20.6;16.2;10.6
57798;PMS7003;43626;53.866;30.298;2023-02-01T06:56:37;25.8;23.2;13.4
57798;PMS7003;43626;53.866;30.298;2023-02-01T07:01:45;18.8;15;10.5
57798;PMS7003;43626;53.866;30.298;2023-02-01T07:06:23;17.8;15.2;8.8
57798;PMS7003;43626;53.866;30.298;2023-02-01T07:11:49;21;17;9.8
57798;PMS7003;43626;53.866;30.298;2023-02-01T07:16:13;22.2;17.6;10.4
57798;PMS7003;43626;53.866;30.298;2023-02-01T07:22:01;25.8;20.8;11.2
57798;PMS7003;43626;53.866;30.298;2023-02-01T07:26:47;15.4;12.8;8
57798;PMS7003;43626;53.866;30.298;2023-02-01T07:32:01;17.2;13.8;8.6
57798;PMS7003;43626;53.866;30.298;2023-02-01T07:37:01;18.4;14.2;8.2
57798;PMS7003;43626;53.866;30.298;2023-02-01T07:41:51;21.4;16.8;9.8
57798;PMS7003;43626;53.866;30.298;2023-02-01T07:46:53;21.2;17.2;9
57798;PMS7003;43626;53.866;30.298;2023-02-01T07:51:27;15.2;13;7.4
57798;PMS7003;43626;53.866;30.298;2023-02-01T07:56:49;15.2;12.2;7
57798;PMS7003;43626;53.866;30.298;2023-02-01T08:01:27;14;11.3;6.8
57798;PMS7003;43626;53.866;30.298;2023-02-01T08:06:47;16.2;13.2;8
57798;PMS7003;43626;53.866;30.298;2023-02-01T08:11:25;16.2;13.4;8.6
57798;PMS7003;43626;53.866;30.298;2023-02-01T08:17:03;16.4;13;7.8
57798;PMS7003;43626;53.866;30.298;2023-02-01T08:21:26;13.8;12;6.8
57798;PMS7003;43626;53.866;30.298;2023-02-01T08:27:01;16.4;12.8;7.6
57798;PMS7003;43626;53.866;30.298;2023-02-01T08:31:51;13;11;6.6
57798;PMS7003;43626;53.866;30.298;2023-02-01T08:36:39;13.2;12.4;7.4
57798;PMS7003;43626;53.866;30.298;2023-02-01T08:41:14;17;14;9
57798;PMS7003;43626;53.866;30.298;2023-02-01T08:46:13;25.2;20.8;11.2
57798;PMS7003;43626;53.866;30.298;2023-02-01T08:51:49;24.2;19.6;12.6
57798;PMS7003;43626;53.866;30.298;2023-02-01T08:57:01;20.4;17.2;10.8
57798;PMS7003;43626;53.866;30.298;2023-02-01T09:01:47;19;16.8;11.3
57798;PMS7003;43626;53.866;30.298;2023-02-01T09:06:14;21.2;16.6;10.4
57798;PMS7003;43626;53.866;30.298;2023-02-01T09:11:59;22;18;10.8
57798;PMS7003;43626;53.866;30.298;2023-02-01T09:16:37;23;19.2;11.6
57798;PMS7003;43626;53.866;30.298;2023-02-01T09:21:47;24.4;20.8;12.4
57798;PMS7003;43626;53.866;30.298;2023-02-01T09:26:37;22;19;11.8
57798;PMS7003;43626;53.866;30.298;2023-02-01T09:31:13;24;20.2;12.4
57798;PMS7003;43626;53.866;30.298;2023-02-01T09:36:35;25.6;19.2;12.4
57798;PMS7003;43626;53.866;30.298;2023-02-01T09:41:26;23.6;18.8;11
57798;PMS7003;43626;53.866;30.298;2023-02-01T09:47:01;24.4;20.4;12.4
57798;PMS7003;43626;53.866;30.298;2023-02-01T09:51:33;30.8;24.8;16
57798;PMS7003;43626;53.866;30.298;2023-02-01T09:56:24;27;22.6;13.8
57798;PMS7003;43626;53.866;30.298;2023-02-01T10:01:59;33.2;27.6;17
57798;PMS7003;43626;53.866;30.298;2023-02-01T10:07:04;35.3;30.5;18.8
57798;PMS7003;43626;53.866;30.298;2023-02-01T10:11:42;33.6;26.8;15.8
57798;PMS7003;43626;53.866;30.298;2023-02-01T10:16:48;35.2;27.8;17.4
57798;PMS7003;43626;53.866;30.298;2023-02-01T10:21:51;28;22.2;13.8
57798;PMS7003;43626;53.866;30.298;2023-02-01T10:26:16;25;21;12.4
57798;PMS7003;43626;53.866;30.298;2023-02-01T10:31:28;21.6;17.6;11.2
57798;PMS7003;43626;53.866;30.298;2023-02-01T10:36:25;21.8;19.2;11.4
57798;PMS7003;43626;53.866;30.298;2023-02-01T10:41:59;24.4;21.8;13
57798;PMS7003;43626;53.866;30.298;2023-02-01T10:46:13;20.8;19;12.2
57798;PMS7003;43626;53.866;30.298;2023-02-01T10:52:05;30;25.2;14.8
57798;PMS7003;43626;53.866;30.298;2023-02-01T10:57:07;23;20;12.8
57798;PMS7003;43626;53.866;30.298;2023-02-01T11:02:02;21;17.6;10.4
57798;PMS7003;43626;53.866;30.298;2023-02-01T11:06:26;28.8;22.8;13.3
57798;PMS7003;43626;53.866;30.298;2023-02-01T11:12:01;23.8;19.2;12.4
57798;PMS7003;43626;53.866;30.298;2023-02-01T11:17:15;20.6;17;10.4
57798;PMS7003;43626;53.866;30.298;2023-02-01T11:21:29;19.2;17.4;12
57798;PMS7003;43626;53.866;30.298;2023-02-01T11:26:38;17.4;15.8;10.2
57798;PMS7003;43626;53.866;30.298;2023-02-01T11:31:35;24;20.2;13.8
57798;PMS7003;43626;53.866;30.298;2023-02-01T11:36:37;27.2;22.2;14
57798;PMS7003;43626;53.866;30.298;2023-02-01T11:41:59;25.4;21.4;12.4
57798;PMS7003;43626;53.866;30.298;2023-02-01T11:46:41;25.6;20.8;14
57798;PMS7003;43626;53.866;30.298;2023-02-01T11:52:06;27.6;23;14
57798;PMS7003;43626;53.866;30.298;2023-02-01T11:56:15;32.4;27.2;16.6
57798;PMS7003;43626;53.866;30.298;2023-02-01T12:01:43;27.8;24.4;13.8
57798;PMS7003;43626;53.866;30.298;2023-02-01T12:06:41;29;25.3;16.3
57798;PMS7003;43626;53.866;30.298;2023-02-01T12:11:31;26.6;23;13.8
57798;PMS7003;43626;53.866;30.298;2023-02-01T12:16:26;35.4;30.2;17
57798;PMS7003;43626;53.866;30.298;2023-02-01T12:21:25;33;26.8;15.8
57798;PMS7003;43626;53.866;30.298;2023-02-01T12:26:54;24;18;11.2
57798;PMS7003;43626;53.866;30.298;2023-02-01T12:31:58;23.6;20.6;13.2
57798;PMS7003;43626;53.866;30.298;2023-02-01T12:37:04;26.4;23.4;14.2
57798;PMS7003;43626;53.866;30.298;2023-02-01T12:41:31;29.4;25.2;15.4
57798;PMS7003;43626;53.866;30.298;2023-02-01T12:47:06;43.2;32;19.2
57798;PMS7003;43626;53.866;30.298;2023-02-01T12:51:42;47.6;37;23
57798;PMS7003;43626;53.866;30.298;2023-02-01T12:56:16;46.6;35;22.6
57798;PMS7003;43626;53.866;30.298;2023-02-01T13:01:40;46.2;36.4;23
57798;PMS7003;43626;53.866;30.298;2023-02-01T13:06:50;46.3;35.8;21.8
57798;PMS7003;43626;53.866;30.298;2023-02-01T13:11:15;33.2;28.2;16.4
57798;PMS7003;43626;53.866;30.298;2023-02-01T13:17:04;34.8;29.8;18.4
57798;PMS7003;43626;53.866;30.298;2023-02-01T13:21:53;35.8;29.6;17.8
57798;PMS7003;43626;53.866;30.298;2023-02-01T13:27:01;32.4;26.4;16
57798;PMS7003;43626;53.866;30.298;2023-02-01T13:32:04;38.2;31;18.8
57798;PMS7003;43626;53.866;30.298;2023-02-01T13:36:56;38.6;30.8;17.8
57798;PMS7003;43626;53.866;30.298;2023-02-01T13:41:52;38.2;31.8;20.2
57798;PMS7003;43626;53.866;30.298;2023-02-01T13:46:13;44.8;34.8;22.8
57798;PMS7003;43626;53.866;30.298;2023-02-01T13:51:50;38.2;30.2;20.2
57798;PMS7003;43626;53.866;30.298;2023-02-01T13:56:13;31.6;26.6;15.8
57798;PMS7003;43626;53.866;30.298;2023-02-01T14:01:49;34.2;29.2;17.6
57798;PMS7003;43626;53.866;30.298;2023-02-01T14:06:50;35.5;31;18.8
57798;PMS7003;43626;53.866;30.298;2023-02-01T14:13:11;30.8;27;16.4
57798;PMS7003;43626;53.866;30.298;2023-02-01T14:16:39;32.6;27.4;16.6
57798;PMS7003;43626;53.866;30.298;2023-02-01T14:22:31;39;30.4;17.4
57798;PMS7003;43626;53.866;30.298;2023-02-01T14:26:51;33.6;27.8;16.4
57798;PMS7003;43626;53.866;30.298;2023-02-01T14:31:52;28.4;25.8;15
57798;PMS7003;43626;53.866;30.298;2023-02-01T14:36:50;34.4;28.4;17.8
57798;PMS7003;43626;53.866;30.298;2023-02-01T14:41:30;31.2;25;15
57798;PMS7003;43626;53.866;30.298;2023-02-01T14:47:09;24.8;21.4;13.6
57798;PMS7003;43626;53.866;30.298;2023-02-01T14:51:27;34.6;29;16.8
57798;PMS7003;43626;53.866;30.298;2023-02-01T14:56:51;30.4;25.8;15.8
57798;PMS7003;43626;53.866;30.298;2023-02-01T15:01:28;34;29.2;18.6
57798;PMS7003;43626;53.866;30.298;2023-02-01T15:07:04;32.6;27.6;17.2
57798;PMS7003;43626;53.866;30.298;2023-02-01T15:11:23;29.5;24.5;15
57798;PMS7003;43626;53.866;30.298;2023-02-01T15:17:02;30;23.2;13
57798;PMS7003;43626;53.866;30.298;2023-02-01T15:21:50;27.4;23.4;14
57798;PMS7003;43626;53.866;30.298;2023-02-01T15:26:49;31.4;26.8;16.2
57798;PMS7003;43626;53.866;30.298;2023-02-01T15:31:38;30.6;25.2;15.8
57798;PMS7003;43626;53.866;30.298;2023-02-01T15:36:27;29.8;25;15.8
57798;PMS7003;43626;53.866;30.298;2023-02-01T15:41:50;41.8;34.8;22.2
57798;PMS7003;43626;53.866;30.298;2023-02-01T15:46:14;35.2;30.2;18.6
57798;PMS7003;43626;53.866;30.298;2023-02-01T15:51:39;33.2;27.4;16.6
57798;PMS7003;43626;53.866;30.298;2023-02-01T15:56:39;31.6;28.6;17.6
57798;PMS7003;43626;53.866;30.298;2023-02-01T16:02:01;42;32.4;21.2
57798;PMS7003;43626;53.866;30.298;2023-02-01T16:06:26;83.2;68.4;42.4
57798;PMS7003;43626;53.866;30.298;2023-02-01T16:11:47;90.8;80;53.3
57798;PMS7003;43626;53.866;30.298;2023-02-01T16:16:23;72.2;57.6;38.6
57798;PMS7003;43626;53.866;30.298;2023-02-01T16:21:37;122.8;110;76.6
57798;PMS7003;43626;53.866;30.298;2023-02-01T16:26:39;89.4;73.4;49.6
57798;PMS7003;43626;53.866;30.298;2023-02-01T16:31:13;130.2;113.2;75.6
57798;PMS7003;43626;53.866;30.298;2023-02-01T16:37:01;152;126.2;79.6
57798;PMS7003;43626;53.866;30.298;2023-02-01T16:41:25;70.4;53.2;33.4
57798;PMS7003;43626;53.866;30.298;2023-02-01T16:46:14;87.8;74;44.2
57798;PMS7003;43626;53.866;30.298;2023-02-01T16:52:01;94.2;77;43.4
57798;PMS7003;43626;53.866;30.298;2023-02-01T16:57:04;86.6;66.6;40.8
57798;PMS7003;43626;53.866;30.298;2023-02-01T17:01:23;88.2;70.8;42.8
57798;PMS7003;43626;53.866;30.298;2023-02-01T17:07:02;75.4;59.8;35.8
57798;PMS7003;43626;53.866;30.298;2023-02-01T17:12:01;68.8;53.5;31.5
57798;PMS7003;43626;53.866;30.298;2023-02-01T17:16:19;55.8;44.2;26.8
57798;PMS7003;43626;53.866;30.298;2023-02-01T17:21:41;43.6;35.6;21.6
57798;PMS7003;43626;53.866;30.298;2023-02-01T17:26:27;31.6;27.4;17.4
57798;PMS7003;43626;53.866;30.298;2023-02-01T17:31:48;34.2;27.2;15.8
57798;PMS7003;43626;53.866;30.298;2023-02-01T17:36:49;29.6;25.4;14.8
57798;PMS7003;43626;53.866;30.298;2023-02-01T17:41:13;34;29.2;18.2
57798;PMS7003;43626;53.866;30.298;2023-02-01T17:47:01;27.8;22.8;13.6
57798;PMS7003;43626;53.866;30.298;2023-02-01T17:51:39;26.8;21.8;13.6
57798;PMS7003;43626;53.866;30.298;2023-02-01T17:56:39;24.2;20.8;12.8
57798;PMS7003;43626;53.866;30.298;2023-02-01T18:01:14;27.2;21.2;13.6
57798;PMS7003;43626;53.866;30.298;2023-02-01T18:06:49;28.8;24.2;13.8
57798;PMS7003;43626;53.866;30.298;2023-02-01T18:11:27;25.8;22.3;13.5
57798;PMS7003;43626;53.866;30.298;2023-02-01T18:16:16;28.8;22.8;13.4
57798;PMS7003;43626;53.866;30.298;2023-02-01T18:21:13;25.6;22;13
57798;PMS7003;43626;53.866;30.298;2023-02-01T18:26:49;25.6;21.6;13.4
57798;PMS7003;43626;53.866;30.298;2023-02-01T18:31:59;26.4;23;13.4
57798;PMS7003;43626;53.866;30.298;2023-02-01T18:36:23;26.6;22.8;13.8
57798;PMS7003;43626;53.866;30.298;2023-02-01T18:41:59;32.2;25.4;14.6
57798;PMS7003;43626;53.866;30.298;2023-02-01T18:46:35;28.8;25;14.2
57798;PMS7003;43626;53.866;30.298;2023-02-01T18:51:47;26.6;23.2;14.2
57798;PMS7003;43626;53.866;30.298;2023-02-01T18:56:27;28.2;23.4;13.8
57798;PMS7003;43626;53.866;30.298;2023-02-01T19:01:47;25.6;20.4;12.8
57798;PMS7003;43626;53.866;30.298;2023-02-01T19:06:25;23.6;20.6;12.4
57798;PMS7003;43626;53.866;30.298;2023-02-01T19:11:59;29.3;22;14
57798;PMS7003;43626;53.866;30.298;2023-02-01T19:16:48;28.6;23.6;13.8
57798;PMS7003;43626;53.866;30.298;2023-02-01T19:21:59;25.8;21.4;13
57798;PMS7003;43626;53.866;30.298;2023-02-01T19:26:59;27.2;22;13.2
57798;PMS7003;43626;53.866;30.298;2023-02-01T19:31:49;23.8;22;12.4
57798;PMS7003;43626;53.866;30.298;2023-02-01T19:36:49;24.8;21;12.4
57798;PMS7003;43626;53.866;30.298;2023-02-01T19:41:13;24.8;20.4;12
57798;PMS7003;43626;53.866;30.298;2023-02-01T19:46:37;27.2;23.4;13.4
57798;PMS7003;43626;53.866;30.298;2023-02-01T19:51:13;26.6;21.8;13
57798;PMS7003;43626;53.866;30.298;2023-02-01T19:56:49;27.6;23.4;14
57798;PMS7003;43626;53.866;30.298;2023-02-01T20:01:13;26;22.2;13
57798;PMS7003;43626;53.866;30.298;2023-02-01T20:07:01;28.4;25.2;14.2
57798;PMS7003;43626;53.866;30.298;2023-02-01T20:11:57;27.6;23;13.6
57798;PMS7003;43626;53.866;30.298;2023-02-01T20:16:59;30;23.8;13.3
57798;PMS7003;43626;53.866;30.298;2023-02-01T20:21:49;26;21.8;13
57798;PMS7003;43626;53.866;30.298;2023-02-01T20:26:49;28.2;24.4;14
57798;PMS7003;43626;53.866;30.298;2023-02-01T20:31:23;32;24;14
57798;PMS7003;43626;53.866;30.298;2023-02-01T20:36:28;30;23.4;13.8
57798;PMS7003;43626;53.866;30.298;2023-02-01T20:41:37;28.8;23;13.6
57798;PMS7003;43626;53.866;30.298;2023-02-01T20:46:13;25.2;21.8;12.6
57798;PMS7003;43626;53.866;30.298;2023-02-01T20:51:45;25;21;12.8
57798;PMS7003;43626;53.866;30.298;2023-02-01T20:56:53;25.2;21;12.8
57798;PMS7003;43626;53.866;30.298;2023-02-01T21:02:01;26;20.8;12.2
57798;PMS7003;43626;53.866;30.298;2023-02-01T21:06:39;25.2;18.6;11.4
57798;PMS7003;43626;53.866;30.298;2023-02-01T21:11:35;24;19.8;12
57798;PMS7003;43626;53.866;30.298;2023-02-01T21:16:49;23.5;20.3;11.5
57798;PMS7003;43626;53.866;30.298;2023-02-01T21:21:27;24.6;19;12.4
57798;PMS7003;43626;53.866;30.298;2023-02-01T21:26:14;23.2;19.6;11.8
57798;PMS7003;43626;53.866;30.298;2023-02-01T21:31:23;21.8;19.6;11.6
57798;PMS7003;43626;53.866;30.298;2023-02-01T21:37:01;22.2;17.6;10.8
57798;PMS7003;43626;53.866;30.298;2023-02-01T21:41:25;25.6;21;11.8
57798;PMS7003;43626;53.866;30.298;2023-02-01T21:46:39;24.4;18.8;11
57798;PMS7003;43626;53.866;30.298;2023-02-01T21:52:01;27.6;22.8;11.8
57798;PMS7003;43626;53.866;30.298;2023-02-01T21:57:01;29;22;12.6
57798;PMS7003;43626;53.866;30.298;2023-02-01T22:01:39;28.4;21;11.8
57798;PMS7003;43626;53.866;30.298;2023-02-01T22:07:01;23.4;19.6;11.4
57798;PMS7003;43626;53.866;30.298;2023-02-01T22:11:59;20.8;19.4;11.4
57798;PMS7003;43626;53.866;30.298;2023-02-01T22:16:27;23.8;20.8;11.3
57798;PMS7003;43626;53.866;30.298;2023-02-01T22:21:39;23.4;18.6;10.6
57798;PMS7003;43626;53.866;30.298;2023-02-01T22:26:13;21.8;18.4;9.8
57798;PMS7003;43626;53.866;30.298;2023-02-01T22:31:59;23.4;19.6;11
57798;PMS7003;43626;53.866;30.298;2023-02-01T22:36:13;21.6;17.4;10.4
57798;PMS7003;43626;53.866;30.298;2023-02-01T22:41:37;21.8;17;10
57798;PMS7003;43626;53.866;30.298;2023-02-01T22:46:59;21.4;17.4;10.4
57798;PMS7003;43626;53.866;30.298;2023-02-01T22:51:59;20;17;9.8
57798;PMS7003;43626;53.866;30.298;2023-02-01T22:56:13;25.8;19;10.4
57798;PMS7003;43626;53.866;30.298;2023-02-01T23:01:57;22.6;16.2;9.8
57798;PMS7003;43626;53.866;30.298;2023-02-01T23:06:57;21.4;16.8;9.2
57798;PMS7003;43626;53.866;30.298;2023-02-01T23:11:13;17.2;14.6;9
57798;PMS7003;43626;53.866;30.298;2023-02-01T23:16:23;18.3;15.3;9
57798;PMS7003;43626;53.866;30.298;2023-02-01T23:21:12;18;15;8
57798;PMS7003;43626;53.866;30.298;2023-02-01T23:26:43;14.4;12.6;6.8
57798;PMS7003;43626;53.866;30.298;2023-02-01T23:31:45;16;12.8;6.6
57798;PMS7003;43626;53.866;30.298;2023-02-01T23:36:27;13.8;12;6.6
57798;PMS7003;43626;53.866;30.298;2023-02-01T23:41:57;12.4;11.2;6.8
57798;PMS7003;43626;53.866;30.298;2023-02-01T23:46:38;13.4;10.8;6.4
57798;PMS7003;43626;53.866;30.298;2023-02-01T23:51:59;16.2;13;6.8
57798;PMS7003;43626;53.866;30.298;2023-02-01T23:56:26;22.2;17.4;9.4
